sensor_id;sensor_type;location;lat;lon;timestamp;P1;durP1;ratioP1;P2;durP2;ratioP2
67757;SDS011;54562;47.620;18.786;2023-05-10T00:01:24;6.80;;;3.20;;
67757;SDS011;54562;47.620;18.786;2023-05-10T00:04:30;7.70;;;3.60;;
67757;SDS011;54562;47.620;18.786;2023-05-10T00:07:37;6.40;;;3.10;;
67757;SDS011;54562;47.620;18.786;2023-05-10T00:10:43;9.90;;;3.40;;
67757;SDS011;54562;47.620;18.786;2023-05-10T00:13:49;6.90;;;3.50;;
67757;SDS011;54562;47.620;18.786;2023-05-10T00:16:55;6.90;;;3.10;;
67757;SDS011;54562;47.620;18.786;2023-05-10T00:20:01;7.30;;;3.30;;
67757;SDS011;54562;47.620;18.786;2023-05-10T00:23:08;8.20;;;3.90;;
67757;SDS011;54562;47.620;18.786;2023-05-10T00:26:15;6.60;;;3.50;;
67757;SDS011;54562;47.620;18.786;2023-05-10T00:29:21;7.10;;;3.50;;
67757;SDS011;54562;47.620;18.786;2023-05-10T00:32:27;7.70;;;3.50;;
67757;SDS011;54562;47.620;18.786;2023-05-10T00:35:34;6.80;;;3.60;;
67757;SDS011;54562;47.620;18.786;2023-05-10T00:38:41;7.50;;;3.70;;
67757;SDS011;54562;47.620;18.786;2023-05-10T00:41:47;7.30;;;4.00;;
67757;SDS011;54562;47.620;18.786;2023-05-10T00:44:53;7.40;;;3.60;;
67757;SDS011;54562;47.620;18.786;2023-05-10T00:48:01;7.60;;;3.80;;
67757;SDS011;54562;47.620;18.786;2023-05-10T00:51:08;6.60;;;3.60;;
67757;SDS011;54562;47.620;18.786;2023-05-10T00:54:14;8.50;;;4.10;;
67757;SDS011;54562;47.620;18.786;2023-05-10T00:57:21;8.80;;;4.00;;
67757;SDS011;54562;47.620;18.786;2023-05-10T01:00:28;8.60;;;3.90;;
67757;SDS011;54562;47.620;18.786;2023-05-10T01:03:34;7.90;;;4.40;;
67757;SDS011;54562;47.620;18.786;2023-05-10T01:06:41;8.00;;;4.10;;
67757;SDS011;54562;47.620;18.786;2023-05-10T01:09:47;7.90;;;4.00;;
67757;SDS011;54562;47.620;18.786;2023-05-10T01:12:54;7.50;;;4.10;;
67757;SDS011;54562;47.620;18.786;2023-05-10T01:16:00;7.60;;;4.30;;
67757;SDS011;54562;47.620;18.786;2023-05-10T01:19:08;7.90;;;4.10;;
67757;SDS011;54562;47.620;18.786;2023-05-10T01:22:25;6.90;;;3.80;;
67757;SDS011;54562;47.620;18.786;2023-05-10T01:33:16;7.50;;;4.10;;
67757;SDS011;54562;47.620;18.786;2023-05-10T01:36:26;9.20;;;4.20;;
67757;SDS011;54562;47.620;18.786;2023-05-10T01:39:39;7.70;;;4.00;;
67757;SDS011;54562;47.620;18.786;2023-05-10T01:42:49;11.50;;;4.10;;
67757;SDS011;54562;47.620;18.786;2023-05-10T01:45:59;6.90;;;3.80;;
67757;SDS011;54562;47.620;18.786;2023-05-10T01:49:13;7.90;;;4.40;;
67757;SDS011;54562;47.620;18.786;2023-05-10T01:52:25;7.50;;;3.90;;
67757;SDS011;54562;47.620;18.786;2023-05-10T01:55:35;11.80;;;4.50;;
67757;SDS011;54562;47.620;18.786;2023-05-10T01:58:44;7.30;;;4.30;;
67757;SDS011;54562;47.620;18.786;2023-05-10T02:01:52;7.90;;;4.50;;
67757;SDS011;54562;47.620;18.786;2023-05-10T02:04:59;8.20;;;4.50;;
67757;SDS011;54562;47.620;18.786;2023-05-10T02:08:06;8.60;;;4.10;;
67757;SDS011;54562;47.620;18.786;2023-05-10T02:11:13;8.10;;;4.40;;
67757;SDS011;54562;47.620;18.786;2023-05-10T02:14:20;9.00;;;4.00;;
67757;SDS011;54562;47.620;18.786;2023-05-10T02:17:27;7.10;;;4.20;;
67757;SDS011;54562;47.620;18.786;2023-05-10T02:20:35;7.50;;;4.30;;
67757;SDS011;54562;47.620;18.786;2023-05-10T02:23:42;8.10;;;4.30;;
67757;SDS011;54562;47.620;18.786;2023-05-10T02:26:49;7.90;;;4.60;;
67757;SDS011;54562;47.620;18.786;2023-05-10T02:29:56;9.70;;;4.50;;
67757;SDS011;54562;47.620;18.786;2023-05-10T02:33:03;9.20;;;4.70;;
67757;SDS011;54562;47.620;18.786;2023-05-10T02:36:10;8.00;;;4.30;;
67757;SDS011;54562;47.620;18.786;2023-05-10T02:39:17;7.50;;;4.50;;
67757;SDS011;54562;47.620;18.786;2023-05-10T02:42:26;7.90;;;4.20;;
67757;SDS011;54562;47.620;18.786;2023-05-10T02:45:33;8.00;;;4.40;;
67757;SDS011;54562;47.620;18.786;2023-05-10T02:48:41;8.30;;;4.40;;
67757;SDS011;54562;47.620;18.786;2023-05-10T02:51:49;7.90;;;4.40;;
67757;SDS011;54562;47.620;18.786;2023-05-10T02:55:01;9.10;;;4.60;;
67757;SDS011;54562;47.620;18.786;2023-05-10T02:58:09;11.80;;;4.90;;
67757;SDS011;54562;47.620;18.786;2023-05-10T03:01:15;8.70;;;4.90;;
67757;SDS011;54562;47.620;18.786;2023-05-10T03:04:21;8.70;;;4.70;;
67757;SDS011;54562;47.620;18.786;2023-05-10T03:07:27;8.60;;;5.30;;
67757;SDS011;54562;47.620;18.786;2023-05-10T03:10:36;9.40;;;4.80;;
67757;SDS011;54562;47.620;18.786;2023-05-10T03:13:48;11.50;;;5.80;;
67757;SDS011;54562;47.620;18.786;2023-05-10T03:17:04;9.40;;;4.80;;
67757;SDS011;54562;47.620;18.786;2023-05-10T03:20:16;10.20;;;5.00;;
67757;SDS011;54562;47.620;18.786;2023-05-10T03:23:30;9.10;;;4.50;;
67757;SDS011;54562;47.620;18.786;2023-05-10T03:26:40;8.90;;;4.80;;
67757;SDS011;54562;47.620;18.786;2023-05-10T03:29:49;9.60;;;5.20;;
67757;SDS011;54562;47.620;18.786;2023-05-10T03:32:56;8.50;;;4.50;;
67757;SDS011;54562;47.620;18.786;2023-05-10T03:36:03;8.70;;;5.00;;
67757;SDS011;54562;47.620;18.786;2023-05-10T03:39:10;8.60;;;5.00;;
67757;SDS011;54562;47.620;18.786;2023-05-10T03:42:16;9.90;;;5.40;;
67757;SDS011;54562;47.620;18.786;2023-05-10T03:45:24;9.50;;;5.40;;
67757;SDS011;54562;47.620;18.786;2023-05-10T03:48:30;11.80;;;6.00;;
67757;SDS011;54562;47.620;18.786;2023-05-10T03:51:37;9.50;;;4.80;;
67757;SDS011;54562;47.620;18.786;2023-05-10T03:54:44;8.20;;;4.90;;
67757;SDS011;54562;47.620;18.786;2023-05-10T03:57:51;8.90;;;5.00;;
67757;SDS011;54562;47.620;18.786;2023-05-10T04:00:57;7.80;;;4.90;;
67757;SDS011;54562;47.620;18.786;2023-05-10T04:04:04;8.40;;;4.80;;
67757;SDS011;54562;47.620;18.786;2023-05-10T04:07:11;9.10;;;5.10;;
67757;SDS011;54562;47.620;18.786;2023-05-10T04:10:17;8.80;;;4.60;;
67757;SDS011;54562;47.620;18.786;2023-05-10T04:13:24;8.60;;;4.90;;
67757;SDS011;54562;47.620;18.786;2023-05-10T04:16:30;8.10;;;5.10;;
67757;SDS011;54562;47.620;18.786;2023-05-10T04:19:37;8.20;;;5.10;;
67757;SDS011;54562;47.620;18.786;2023-05-10T04:22:43;9.20;;;5.00;;
67757;SDS011;54562;47.620;18.786;2023-05-10T04:25:49;8.40;;;4.80;;
67757;SDS011;54562;47.620;18.786;2023-05-10T04:28:56;6.70;;;4.10;;
67757;SDS011;54562;47.620;18.786;2023-05-10T04:32:02;7.80;;;4.50;;
67757;SDS011;54562;47.620;18.786;2023-05-10T04:35:09;9.70;;;4.60;;
67757;SDS011;54562;47.620;18.786;2023-05-10T04:38:18;10.10;;;4.60;;
67757;SDS011;54562;47.620;18.786;2023-05-10T04:41:24;7.00;;;4.40;;
67757;SDS011;54562;47.620;18.786;2023-05-10T04:44:30;8.30;;;4.50;;
67757;SDS011;54562;47.620;18.786;2023-05-10T04:47:37;8.60;;;4.60;;
67757;SDS011;54562;47.620;18.786;2023-05-10T04:50:43;9.20;;;4.80;;
67757;SDS011;54562;47.620;18.786;2023-05-10T04:53:49;8.10;;;4.80;;
67757;SDS011;54562;47.620;18.786;2023-05-10T04:57:08;7.80;;;4.60;;
67757;SDS011;54562;47.620;18.786;2023-05-10T05:00:15;7.40;;;4.60;;
67757;SDS011;54562;47.620;18.786;2023-05-10T05:03:22;7.30;;;4.50;;
67757;SDS011;54562;47.620;18.786;2023-05-10T05:06:28;8.50;;;4.60;;
67757;SDS011;54562;47.620;18.786;2023-05-10T05:09:35;9.60;;;4.80;;
67757;SDS011;54562;47.620;18.786;2023-05-10T05:12:41;7.40;;;4.30;;
67757;SDS011;54562;47.620;18.786;2023-05-10T05:15:47;7.10;;;4.40;;
67757;SDS011;54562;47.620;18.786;2023-05-10T05:18:53;7.20;;;4.20;;
67757;SDS011;54562;47.620;18.786;2023-05-10T05:22:00;8.70;;;4.60;;
67757;SDS011;54562;47.620;18.786;2023-05-10T05:25:07;7.70;;;4.50;;
67757;SDS011;54562;47.620;18.786;2023-05-10T05:28:14;8.60;;;4.90;;
67757;SDS011;54562;47.620;18.786;2023-05-10T05:31:21;7.40;;;4.20;;
67757;SDS011;54562;47.620;18.786;2023-05-10T05:34:27;10.70;;;4.80;;
67757;SDS011;54562;47.620;18.786;2023-05-10T05:37:33;8.70;;;4.80;;
67757;SDS011;54562;47.620;18.786;2023-05-10T05:40:40;7.80;;;4.50;;
67757;SDS011;54562;47.620;18.786;2023-05-10T05:43:46;7.50;;;4.20;;
67757;SDS011;54562;47.620;18.786;2023-05-10T05:46:53;8.80;;;4.90;;
67757;SDS011;54562;47.620;18.786;2023-05-10T05:49:59;7.60;;;4.60;;
67757;SDS011;54562;47.620;18.786;2023-05-10T05:53:05;7.40;;;4.50;;
67757;SDS011;54562;47.620;18.786;2023-05-10T05:56:12;7.80;;;4.70;;
67757;SDS011;54562;47.620;18.786;2023-05-10T05:59:18;8.50;;;4.60;;
67757;SDS011;54562;47.620;18.786;2023-05-10T06:02:24;8.90;;;4.50;;
67757;SDS011;54562;47.620;18.786;2023-05-10T06:05:30;7.90;;;4.30;;
67757;SDS011;54562;47.620;18.786;2023-05-10T06:08:37;7.70;;;4.40;;
67757;SDS011;54562;47.620;18.786;2023-05-10T06:11:43;7.40;;;3.80;;
67757;SDS011;54562;47.620;18.786;2023-05-10T06:14:49;10.20;;;4.60;;
67757;SDS011;54562;47.620;18.786;2023-05-10T06:17:56;6.40;;;3.40;;
67757;SDS011;54562;47.620;18.786;2023-05-10T06:21:02;8.90;;;4.30;;
67757;SDS011;54562;47.620;18.786;2023-05-10T06:24:08;8.50;;;4.10;;
67757;SDS011;54562;47.620;18.786;2023-05-10T06:27:14;7.70;;;4.40;;
67757;SDS011;54562;47.620;18.786;2023-05-10T06:30:22;7.70;;;4.10;;
67757;SDS011;54562;47.620;18.786;2023-05-10T06:33:32;6.40;;;3.80;;
67757;SDS011;54562;47.620;18.786;2023-05-10T06:36:38;7.20;;;4.10;;
67757;SDS011;54562;47.620;18.786;2023-05-10T06:39:45;7.80;;;4.10;;
67757;SDS011;54562;47.620;18.786;2023-05-10T06:42:51;8.20;;;4.30;;
67757;SDS011;54562;47.620;18.786;2023-05-10T06:45:57;7.50;;;3.90;;
67757;SDS011;54562;47.620;18.786;2023-05-10T06:49:04;7.60;;;4.50;;
67757;SDS011;54562;47.620;18.786;2023-05-10T06:52:11;8.20;;;4.40;;
67757;SDS011;54562;47.620;18.786;2023-05-10T06:55:17;8.00;;;4.30;;
67757;SDS011;54562;47.620;18.786;2023-05-10T06:58:24;7.60;;;4.10;;
67757;SDS011;54562;47.620;18.786;2023-05-10T07:01:30;7.60;;;4.00;;
67757;SDS011;54562;47.620;18.786;2023-05-10T07:04:37;7.90;;;4.10;;
67757;SDS011;54562;47.620;18.786;2023-05-10T07:07:44;7.10;;;3.70;;
67757;SDS011;54562;47.620;18.786;2023-05-10T07:10:50;7.50;;;4.20;;
67757;SDS011;54562;47.620;18.786;2023-05-10T07:13:57;6.60;;;3.70;;
67757;SDS011;54562;47.620;18.786;2023-05-10T07:17:04;6.60;;;4.00;;
67757;SDS011;54562;47.620;18.786;2023-05-10T07:20:10;7.70;;;3.90;;
67757;SDS011;54562;47.620;18.786;2023-05-10T07:23:17;7.60;;;3.60;;
67757;SDS011;54562;47.620;18.786;2023-05-10T07:26:23;7.80;;;4.00;;
67757;SDS011;54562;47.620;18.786;2023-05-10T07:29:30;7.80;;;4.30;;
67757;SDS011;54562;47.620;18.786;2023-05-10T07:32:37;6.20;;;3.40;;
67757;SDS011;54562;47.620;18.786;2023-05-10T07:35:45;6.50;;;3.70;;
67757;SDS011;54562;47.620;18.786;2023-05-10T07:38:51;8.10;;;3.60;;
67757;SDS011;54562;47.620;18.786;2023-05-10T07:41:58;6.60;;;3.70;;
67757;SDS011;54562;47.620;18.786;2023-05-10T07:45:04;7.00;;;3.60;;
67757;SDS011;54562;47.620;18.786;2023-05-10T07:48:12;8.30;;;4.40;;
67757;SDS011;54562;47.620;18.786;2023-05-10T07:51:18;8.00;;;4.20;;
67757;SDS011;54562;47.620;18.786;2023-05-10T07:54:25;6.60;;;3.70;;
67757;SDS011;54562;47.620;18.786;2023-05-10T07:57:31;10.10;;;4.50;;
67757;SDS011;54562;47.620;18.786;2023-05-10T08:00:37;6.40;;;3.10;;
67757;SDS011;54562;47.620;18.786;2023-05-10T08:03:44;6.90;;;3.70;;
67757;SDS011;54562;47.620;18.786;2023-05-10T08:06:50;9.60;;;3.90;;
67757;SDS011;54562;47.620;18.786;2023-05-10T08:09:57;7.80;;;4.10;;
67757;SDS011;54562;47.620;18.786;2023-05-10T08:13:03;7.80;;;4.00;;
67757;SDS011;54562;47.620;18.786;2023-05-10T08:16:10;7.80;;;4.20;;
67757;SDS011;54562;47.620;18.786;2023-05-10T08:19:16;9.20;;;3.90;;
67757;SDS011;54562;47.620;18.786;2023-05-10T08:22:24;6.90;;;3.90;;
67757;SDS011;54562;47.620;18.786;2023-05-10T08:25:30;9.50;;;4.10;;
67757;SDS011;54562;47.620;18.786;2023-05-10T08:28:37;9.50;;;3.90;;
67757;SDS011;54562;47.620;18.786;2023-05-10T08:31:43;8.30;;;4.00;;
67757;SDS011;54562;47.620;18.786;2023-05-10T08:34:49;7.70;;;3.50;;
67757;SDS011;54562;47.620;18.786;2023-05-10T08:37:56;8.40;;;4.20;;
67757;SDS011;54562;47.620;18.786;2023-05-10T08:41:02;7.10;;;4.00;;
67757;SDS011;54562;47.620;18.786;2023-05-10T08:44:09;8.50;;;4.20;;
67757;SDS011;54562;47.620;18.786;2023-05-10T08:47:16;7.40;;;4.00;;
67757;SDS011;54562;47.620;18.786;2023-05-10T08:50:24;7.40;;;3.90;;
67757;SDS011;54562;47.620;18.786;2023-05-10T08:53:31;8.80;;;4.60;;
67757;SDS011;54562;47.620;18.786;2023-05-10T08:56:39;6.90;;;4.10;;
67757;SDS011;54562;47.620;18.786;2023-05-10T08:59:45;9.70;;;4.10;;
67757;SDS011;54562;47.620;18.786;2023-05-10T09:02:53;9.00;;;4.30;;
67757;SDS011;54562;47.620;18.786;2023-05-10T09:05:59;7.00;;;4.50;;
67757;SDS011;54562;47.620;18.786;2023-05-10T09:09:07;8.30;;;4.20;;
67757;SDS011;54562;47.620;18.786;2023-05-10T09:12:13;8.50;;;3.70;;
67757;SDS011;54562;47.620;18.786;2023-05-10T09:15:20;6.70;;;3.80;;
67757;SDS011;54562;47.620;18.786;2023-05-10T09:18:26;6.30;;;3.20;;
67757;SDS011;54562;47.620;18.786;2023-05-10T09:21:33;7.80;;;3.50;;
67757;SDS011;54562;47.620;18.786;2023-05-10T09:24:41;6.30;;;3.80;;
67757;SDS011;54562;47.620;18.786;2023-05-10T09:27:49;8.30;;;3.60;;
67757;SDS011;54562;47.620;18.786;2023-05-10T09:30:56;6.80;;;3.90;;
67757;SDS011;54562;47.620;18.786;2023-05-10T09:34:03;6.40;;;3.60;;
67757;SDS011;54562;47.620;18.786;2023-05-10T09:37:09;6.90;;;4.30;;
67757;SDS011;54562;47.620;18.786;2023-05-10T09:40:16;7.20;;;3.80;;
67757;SDS011;54562;47.620;18.786;2023-05-10T09:43:24;6.90;;;3.90;;
67757;SDS011;54562;47.620;18.786;2023-05-10T09:46:32;7.00;;;4.10;;
67757;SDS011;54562;47.620;18.786;2023-05-10T09:49:40;6.60;;;3.90;;
67757;SDS011;54562;47.620;18.786;2023-05-10T09:52:48;5.40;;;2.70;;
67757;SDS011;54562;47.620;18.786;2023-05-10T09:55:55;5.80;;;3.40;;
67757;SDS011;54562;47.620;18.786;2023-05-10T09:59:05;6.50;;;3.70;;
67757;SDS011;54562;47.620;18.786;2023-05-10T10:02:11;6.70;;;3.70;;
67757;SDS011;54562;47.620;18.786;2023-05-10T10:05:18;6.60;;;3.70;;
67757;SDS011;54562;47.620;18.786;2023-05-10T10:08:24;7.80;;;3.60;;
67757;SDS011;54562;47.620;18.786;2023-05-10T10:11:31;5.80;;;3.30;;
67757;SDS011;54562;47.620;18.786;2023-05-10T10:14:38;6.40;;;3.40;;
67757;SDS011;54562;47.620;18.786;2023-05-10T10:17:44;8.10;;;3.60;;
67757;SDS011;54562;47.620;18.786;2023-05-10T10:20:51;6.30;;;3.30;;
67757;SDS011;54562;47.620;18.786;2023-05-10T10:23:58;6.60;;;3.70;;
67757;SDS011;54562;47.620;18.786;2023-05-10T10:27:07;6.80;;;2.70;;
67757;SDS011;54562;47.620;18.786;2023-05-10T10:30:20;5.90;;;3.50;;
67757;SDS011;54562;47.620;18.786;2023-05-10T10:33:47;6.00;;;3.10;;
67757;SDS011;54562;47.620;18.786;2023-05-10T10:37:03;6.50;;;3.40;;
67757;SDS011;54562;47.620;18.786;2023-05-10T10:40:26;6.50;;;3.70;;
67757;SDS011;54562;47.620;18.786;2023-05-10T10:43:37;8.00;;;3.60;;
67757;SDS011;54562;47.620;18.786;2023-05-10T10:50:11;6.70;;;3.40;;
67757;SDS011;54562;47.620;18.786;2023-05-10T10:53:19;6.50;;;3.30;;
67757;SDS011;54562;47.620;18.786;2023-05-10T10:56:25;5.70;;;3.10;;
67757;SDS011;54562;47.620;18.786;2023-05-10T10:59:31;6.50;;;3.10;;
67757;SDS011;54562;47.620;18.786;2023-05-10T11:02:44;6.20;;;3.50;;
67757;SDS011;54562;47.620;18.786;2023-05-10T11:05:55;6.20;;;3.40;;
67757;SDS011;54562;47.620;18.786;2023-05-10T11:09:06;5.90;;;3.40;;
67757;SDS011;54562;47.620;18.786;2023-05-10T11:12:13;6.20;;;3.50;;
67757;SDS011;54562;47.620;18.786;2023-05-10T11:15:19;7.90;;;3.40;;
67757;SDS011;54562;47.620;18.786;2023-05-10T11:18:26;5.70;;;3.20;;
67757;SDS011;54562;47.620;18.786;2023-05-10T11:21:34;5.60;;;2.90;;
67757;SDS011;54562;47.620;18.786;2023-05-10T11:24:57;6.40;;;3.30;;
67757;SDS011;54562;47.620;18.786;2023-05-10T11:28:04;6.40;;;3.10;;
67757;SDS011;54562;47.620;18.786;2023-05-10T11:31:10;7.30;;;3.00;;
67757;SDS011;54562;47.620;18.786;2023-05-10T11:34:24;6.60;;;3.40;;
67757;SDS011;54562;47.620;18.786;2023-05-10T11:37:33;5.40;;;2.90;;
67757;SDS011;54562;47.620;18.786;2023-05-10T11:40:39;5.50;;;3.00;;
67757;SDS011;54562;47.620;18.786;2023-05-10T11:43:47;7.70;;;3.30;;
67757;SDS011;54562;47.620;18.786;2023-05-10T11:46:53;7.70;;;3.60;;
67757;SDS011;54562;47.620;18.786;2023-05-10T11:49:59;5.80;;;3.00;;
67757;SDS011;54562;47.620;18.786;2023-05-10T11:53:06;5.50;;;2.70;;
67757;SDS011;54562;47.620;18.786;2023-05-10T11:56:12;6.90;;;3.00;;
67757;SDS011;54562;47.620;18.786;2023-05-10T11:59:19;4.80;;;2.70;;
67757;SDS011;54562;47.620;18.786;2023-05-10T12:02:25;6.20;;;2.40;;
67757;SDS011;54562;47.620;18.786;2023-05-10T12:05:33;5.50;;;2.70;;
67757;SDS011;54562;47.620;18.786;2023-05-10T12:08:43;5.80;;;2.80;;
67757;SDS011;54562;47.620;18.786;2023-05-10T12:11:54;6.10;;;2.70;;
67757;SDS011;54562;47.620;18.786;2023-05-10T12:15:01;5.70;;;2.50;;
67757;SDS011;54562;47.620;18.786;2023-05-10T12:18:09;4.90;;;2.40;;
67757;SDS011;54562;47.620;18.786;2023-05-10T12:21:15;5.40;;;2.50;;
67757;SDS011;54562;47.620;18.786;2023-05-10T12:24:22;5.00;;;2.30;;
67757;SDS011;54562;47.620;18.786;2023-05-10T12:27:32;6.00;;;2.70;;
67757;SDS011;54562;47.620;18.786;2023-05-10T12:30:39;5.80;;;2.80;;
67757;SDS011;54562;47.620;18.786;2023-05-10T12:33:45;5.50;;;2.90;;
67757;SDS011;54562;47.620;18.786;2023-05-10T12:36:53;5.10;;;2.70;;
67757;SDS011;54562;47.620;18.786;2023-05-10T12:40:00;5.50;;;2.80;;
67757;SDS011;54562;47.620;18.786;2023-05-10T12:43:08;6.00;;;2.80;;
67757;SDS011;54562;47.620;18.786;2023-05-10T12:46:15;5.10;;;2.60;;
67757;SDS011;54562;47.620;18.786;2023-05-10T12:49:22;5.60;;;2.80;;
67757;SDS011;54562;47.620;18.786;2023-05-10T12:52:28;5.90;;;2.30;;
67757;SDS011;54562;47.620;18.786;2023-05-10T12:55:36;6.40;;;2.60;;
67757;SDS011;54562;47.620;18.786;2023-05-10T12:58:42;4.90;;;2.60;;
67757;SDS011;54562;47.620;18.786;2023-05-10T13:01:51;4.90;;;2.60;;
67757;SDS011;54562;47.620;18.786;2023-05-10T13:04:57;5.40;;;2.40;;
67757;SDS011;54562;47.620;18.786;2023-05-10T13:08:04;5.50;;;2.60;;
67757;SDS011;54562;47.620;18.786;2023-05-10T13:11:10;7.00;;;2.50;;
67757;SDS011;54562;47.620;18.786;2023-05-10T13:14:20;7.00;;;2.70;;
67757;SDS011;54562;47.620;18.786;2023-05-10T13:17:26;5.20;;;2.50;;
67757;SDS011;54562;47.620;18.786;2023-05-10T13:23:41;6.20;;;2.50;;
67757;SDS011;54562;47.620;18.786;2023-05-10T13:26:47;5.00;;;2.20;;
67757;SDS011;54562;47.620;18.786;2023-05-10T13:29:54;5.40;;;2.40;;
67757;SDS011;54562;47.620;18.786;2023-05-10T13:33:02;5.10;;;2.50;;
67757;SDS011;54562;47.620;18.786;2023-05-10T13:36:09;5.50;;;2.60;;
67757;SDS011;54562;47.620;18.786;2023-05-10T13:39:15;7.20;;;2.50;;
67757;SDS011;54562;47.620;18.786;2023-05-10T13:42:22;5.50;;;2.40;;
67757;SDS011;54562;47.620;18.786;2023-05-10T13:45:29;6.60;;;2.40;;
67757;SDS011;54562;47.620;18.786;2023-05-10T13:48:35;6.40;;;2.30;;
67757;SDS011;54562;47.620;18.786;2023-05-10T13:51:42;5.70;;;2.30;;
67757;SDS011;54562;47.620;18.786;2023-05-10T13:54:49;3.80;;;1.90;;
67757;SDS011;54562;47.620;18.786;2023-05-10T13:57:58;5.40;;;2.50;;
67757;SDS011;54562;47.620;18.786;2023-05-10T14:01:04;5.70;;;2.30;;
67757;SDS011;54562;47.620;18.786;2023-05-10T14:04:10;5.10;;;2.20;;
67757;SDS011;54562;47.620;18.786;2023-05-10T14:07:16;5.80;;;2.30;;
67757;SDS011;54562;47.620;18.786;2023-05-10T14:10:23;5.60;;;2.30;;
67757;SDS011;54562;47.620;18.786;2023-05-10T14:13:29;5.00;;;2.20;;
67757;SDS011;54562;47.620;18.786;2023-05-10T14:16:36;5.10;;;2.20;;
67757;SDS011;54562;47.620;18.786;2023-05-10T14:19:42;4.50;;;2.20;;
67757;SDS011;54562;47.620;18.786;2023-05-10T14:22:49;5.30;;;2.10;;
67757;SDS011;54562;47.620;18.786;2023-05-10T14:25:55;5.40;;;2.00;;
67757;SDS011;54562;47.620;18.786;2023-05-10T14:29:02;5.70;;;2.20;;
67757;SDS011;54562;47.620;18.786;2023-05-10T14:32:08;5.50;;;2.10;;
67757;SDS011;54562;47.620;18.786;2023-05-10T14:35:15;4.20;;;2.10;;
67757;SDS011;54562;47.620;18.786;2023-05-10T14:38:22;5.10;;;2.20;;
67757;SDS011;54562;47.620;18.786;2023-05-10T14:41:28;4.50;;;2.00;;
67757;SDS011;54562;47.620;18.786;2023-05-10T14:44:34;5.80;;;2.30;;
67757;SDS011;54562;47.620;18.786;2023-05-10T14:47:41;4.90;;;2.10;;
67757;SDS011;54562;47.620;18.786;2023-05-10T14:50:47;5.70;;;1.90;;
67757;SDS011;54562;47.620;18.786;2023-05-10T14:53:55;6.20;;;2.30;;
67757;SDS011;54562;47.620;18.786;2023-05-10T14:57:02;6.70;;;2.10;;
67757;SDS011;54562;47.620;18.786;2023-05-10T15:00:10;4.20;;;2.00;;
67757;SDS011;54562;47.620;18.786;2023-05-10T15:03:19;6.90;;;2.10;;
67757;SDS011;54562;47.620;18.786;2023-05-10T15:06:31;6.80;;;2.10;;
67757;SDS011;54562;47.620;18.786;2023-05-10T15:09:38;15.30;;;2.50;;
67757;SDS011;54562;47.620;18.786;2023-05-10T15:12:44;5.20;;;1.90;;
67757;SDS011;54562;47.620;18.786;2023-05-10T15:15:50;4.80;;;2.00;;
67757;SDS011;54562;47.620;18.786;2023-05-10T15:18:57;4.70;;;2.00;;
67757;SDS011;54562;47.620;18.786;2023-05-10T15:22:03;4.60;;;1.90;;
67757;SDS011;54562;47.620;18.786;2023-05-10T15:25:10;4.40;;;2.00;;
67757;SDS011;54562;47.620;18.786;2023-05-10T15:28:17;4.70;;;2.20;;
67757;SDS011;54562;47.620;18.786;2023-05-10T15:31:24;4.80;;;2.30;;
67757;SDS011;54562;47.620;18.786;2023-05-10T15:34:30;6.00;;;2.20;;
67757;SDS011;54562;47.620;18.786;2023-05-10T15:37:39;7.50;;;2.30;;
67757;SDS011;54562;47.620;18.786;2023-05-10T15:40:45;4.70;;;2.00;;
67757;SDS011;54562;47.620;18.786;2023-05-10T15:43:51;4.50;;;2.00;;
67757;SDS011;54562;47.620;18.786;2023-05-10T15:46:57;6.10;;;2.00;;
67757;SDS011;54562;47.620;18.786;2023-05-10T15:50:05;4.30;;;1.70;;
67757;SDS011;54562;47.620;18.786;2023-05-10T15:53:12;7.80;;;2.10;;
67757;SDS011;54562;47.620;18.786;2023-05-10T15:56:18;5.20;;;1.80;;
67757;SDS011;54562;47.620;18.786;2023-05-10T15:59:25;5.20;;;1.90;;
67757;SDS011;54562;47.620;18.786;2023-05-10T16:02:31;8.70;;;2.00;;
67757;SDS011;54562;47.620;18.786;2023-05-10T16:05:38;3.70;;;1.80;;
67757;SDS011;54562;47.620;18.786;2023-05-10T16:08:44;11.00;;;2.00;;
67757;SDS011;54562;47.620;18.786;2023-05-10T16:11:51;4.50;;;1.80;;
67757;SDS011;54562;47.620;18.786;2023-05-10T16:14:57;4.30;;;1.70;;
67757;SDS011;54562;47.620;18.786;2023-05-10T16:18:04;6.20;;;1.90;;
67757;SDS011;54562;47.620;18.786;2023-05-10T16:21:11;5.00;;;1.90;;
67757;SDS011;54562;47.620;18.786;2023-05-10T16:24:17;4.50;;;2.10;;
67757;SDS011;54562;47.620;18.786;2023-05-10T16:27:23;4.90;;;1.90;;
67757;SDS011;54562;47.620;18.786;2023-05-10T16:30:32;5.70;;;2.00;;
67757;SDS011;54562;47.620;18.786;2023-05-10T16:33:39;4.80;;;2.10;;
67757;SDS011;54562;47.620;18.786;2023-05-10T16:36:45;5.20;;;2.00;;
67757;SDS011;54562;47.620;18.786;2023-05-10T16:39:51;5.00;;;2.10;;
67757;SDS011;54562;47.620;18.786;2023-05-10T16:42:58;5.00;;;2.10;;
67757;SDS011;54562;47.620;18.786;2023-05-10T16:46:09;5.60;;;2.20;;
67757;SDS011;54562;47.620;18.786;2023-05-10T16:49:16;7.20;;;2.20;;
67757;SDS011;54562;47.620;18.786;2023-05-10T16:52:22;6.30;;;2.30;;
67757;SDS011;54562;47.620;18.786;2023-05-10T16:55:29;6.00;;;2.60;;
67757;SDS011;54562;47.620;18.786;2023-05-10T16:58:35;6.10;;;2.40;;
67757;SDS011;54562;47.620;18.786;2023-05-10T17:01:41;6.40;;;2.50;;
67757;SDS011;54562;47.620;18.786;2023-05-10T17:04:49;5.20;;;2.40;;
67757;SDS011;54562;47.620;18.786;2023-05-10T17:07:58;5.60;;;2.30;;
67757;SDS011;54562;47.620;18.786;2023-05-10T17:11:04;5.20;;;2.50;;
67757;SDS011;54562;47.620;18.786;2023-05-10T17:14:10;6.20;;;2.60;;
67757;SDS011;54562;47.620;18.786;2023-05-10T17:17:16;6.70;;;2.70;;
67757;SDS011;54562;47.620;18.786;2023-05-10T17:20:22;5.70;;;2.40;;
67757;SDS011;54562;47.620;18.786;2023-05-10T17:23:29;6.50;;;2.40;;
67757;SDS011;54562;47.620;18.786;2023-05-10T17:26:35;6.80;;;2.40;;
67757;SDS011;54562;47.620;18.786;2023-05-10T17:29:42;5.80;;;2.30;;
67757;SDS011;54562;47.620;18.786;2023-05-10T17:32:49;4.90;;;2.20;;
67757;SDS011;54562;47.620;18.786;2023-05-10T17:35:57;6.10;;;2.50;;
67757;SDS011;54562;47.620;18.786;2023-05-10T17:39:03;6.80;;;2.60;;
67757;SDS011;54562;47.620;18.786;2023-05-10T17:42:10;4.90;;;2.30;;
67757;SDS011;54562;47.620;18.786;2023-05-10T17:45:19;10.50;;;2.70;;
67757;SDS011;54562;47.620;18.786;2023-05-10T17:48:26;5.60;;;2.50;;
67757;SDS011;54562;47.620;18.786;2023-05-10T17:51:33;7.10;;;2.50;;
67757;SDS011;54562;47.620;18.786;2023-05-10T17:54:39;7.10;;;2.60;;
67757;SDS011;54562;47.620;18.786;2023-05-10T17:57:45;6.40;;;2.70;;
67757;SDS011;54562;47.620;18.786;2023-05-10T18:00:54;5.50;;;2.70;;
67757;SDS011;54562;47.620;18.786;2023-05-10T18:04:01;5.80;;;2.70;;
67757;SDS011;54562;47.620;18.786;2023-05-10T18:07:08;6.40;;;2.70;;
67757;SDS011;54562;47.620;18.786;2023-05-10T18:10:15;6.80;;;2.80;;
67757;SDS011;54562;47.620;18.786;2023-05-10T18:13:21;6.10;;;2.60;;
67757;SDS011;54562;47.620;18.786;2023-05-10T18:16:27;6.80;;;3.00;;
67757;SDS011;54562;47.620;18.786;2023-05-10T18:19:33;5.90;;;2.90;;
67757;SDS011;54562;47.620;18.786;2023-05-10T18:22:40;8.20;;;2.80;;
67757;SDS011;54562;47.620;18.786;2023-05-10T18:25:47;5.60;;;2.90;;
67757;SDS011;54562;47.620;18.786;2023-05-10T18:28:54;6.60;;;2.70;;
67757;SDS011;54562;47.620;18.786;2023-05-10T18:32:03;5.50;;;2.70;;
67757;SDS011;54562;47.620;18.786;2023-05-10T18:35:10;5.90;;;2.70;;
67757;SDS011;54562;47.620;18.786;2023-05-10T18:38:16;7.10;;;2.80;;
67757;SDS011;54562;47.620;18.786;2023-05-10T18:41:22;6.10;;;3.00;;
67757;SDS011;54562;47.620;18.786;2023-05-10T18:44:29;6.40;;;3.00;;